Time;durP1;ratioP1;P1;durP2;ratioP2;P2;SDS_P1;SDS_P2;PMS_P1;PMS_P2;Temp;Humidity;BMP_temperature;BMP_pressure;BME280_temperature;BME280_humidity;BME280_pressure;Samples;Min_cycle;Max_cycle;Signal;HPM_P1;HPM_P2
2022/09/09 00:00:19;;;;;;;0.80;0.40;;;24.70;54.30;;;;;;4930545;28;87527;-83
2022/09/09 00:03:08;;;;;;;0.95;0.40;;;24.60;54.30;;;;;;4930823;28;87967;-84
2022/09/09 00:05:41;;;;;;;0.50;0.30;;;24.70;54.40;;;;;;4932023;28;88771;-84
2022/09/09 00:08:13;;;;;;;0.95;0.50;;;24.60;54.50;;;;;;4930886;28;87620;-84
2022/09/09 00:10:41;;;;;;;1.05;0.50;;;24.70;54.60;;;;;;4932679;28;87132;-83
2022/09/09 00:13:19;;;;;;;0.80;0.40;;;24.60;54.50;;;;;;4929429;28;92926;-83
2022/09/09 00:16:00;;;;;;;1.08;0.50;;;24.60;54.70;;;;;;4930430;28;89229;-84
2022/09/09 00:18:47;;;;;;;1.20;0.43;;;24.60;54.60;;;;;;4932491;28;86890;-83
2022/09/09 00:21:17;;;;;;;0.73;0.52;;;24.60;54.70;;;;;;4931846;28;91142;-84
2022/09/09 00:23:54;;;;;;;0.73;0.52;;;24.60;54.60;;;;;;4931557;28;87434;-83
2022/09/09 00:26:32;;;;;;;0.70;0.47;;;24.60;54.80;;;;;;4929848;28;87520;-84
2022/09/09 00:29:24;;;;;;;0.90;0.47;;;24.60;54.70;;;;;;4929626;28;87303;-84
2022/09/09 00:31:54;;;;;;;0.40;0.30;;;24.60;54.80;;;;;;4931281;28;86872;-84
2022/09/09 00:34:23;;;;;;;1.67;0.50;;;24.60;54.90;;;;;;4931393;28;88403;-84
2022/09/09 00:36:51;;;;;;;;;;;24.50;54.70;;;;;;4921932;28;89174;-84
2022/09/09 00:39:36;;;;;;;1.55;0.40;;;24.60;54.80;;;;;;4939643;28;87914;-83
2022/09/09 00:42:23;;;;;;;1.40;0.68;;;24.50;54.70;;;;;;4937282;28;92473;-84
2022/09/09 00:45:28;;;;;;;1.05;0.70;;;24.60;54.90;;;;;;4937673;28;87413;-84
2022/09/09 00:47:54;;;;;;;1.00;0.50;;;24.50;54.80;;;;;;4937715;28;92981;-83
2022/09/09 00:50:52;;;;;;;1.20;0.50;;;24.50;54.80;;;;;;4938291;28;86929;-84
2022/09/09 00:53:29;;;;;;;1.33;0.57;;;24.50;55.00;;;;;;4937628;28;88106;-83
2022/09/09 00:56:08;;;;;;;0.93;0.57;;;24.50;55.00;;;;;;4921227;28;91902;-84
2022/09/09 00:58:34;;;;;;;0.88;0.55;;;24.50;55.00;;;;;;4938163;28;88226;-84
2022/09/09 01:01:06;;;;;;;0.77;0.40;;;24.50;55.00;;;;;;4938197;28;87488;-84
2022/09/09 01:03:36;;;;;;;0.50;0.50;;;24.40;55.10;;;;;;4937392;28;87648;-84
2022/09/09 01:06:11;;;;;;;1.05;0.60;;;24.40;55.00;;;;;;4937707;28;88581;-84
2022/09/09 01:09:05;;;;;;;1.13;0.60;;;24.40;55.00;;;;;;4945051;28;88673;-83
2022/09/09 01:12:03;;;;;;;0.57;0.43;;;24.40;55.00;;;;;;4929245;28;87125;-83
2022/09/09 01:14:39;;;;;;;1.33;0.73;;;24.40;55.00;;;;;;4948520;28;87468;-84
2022/09/09 01:17:26;;;;;;;0.50;0.40;;;24.40;55.10;;;;;;4945637;28;90935;-84
2022/09/09 01:20:06;;;;;;;0.77;0.43;;;24.40;55.00;;;;;;4945748;28;88345;-84
2022/09/09 01:23:09;;;;;;;0.30;0.30;;;24.50;55.20;;;;;;4947732;28;87306;-83
2022/09/09 01:25:43;;;;;;;2.40;0.60;;;24.40;55.00;;;;;;4947676;28;88010;-83
2022/09/09 01:28:15;;;;;;;0.85;0.40;;;24.40;55.20;;;;;;4943026;28;88959;-84
2022/09/09 01:30:41;;;;;;;1.50;0.60;;;24.40;55.20;;;;;;4929832;28;88320;-84
2022/09/09 01:33:16;;;;;;;0.93;0.43;;;24.40;55.20;;;;;;4930028;28;88256;-84
2022/09/09 01:36:00;;;;;;;0.98;0.50;;;24.40;55.10;;;;;;4929378;28;87426;-84
2022/09/09 01:38:27;;;;;;;1.17;0.50;;;24.40;55.20;;;;;;4928351;28;88890;-84
2022/09/09 01:40:53;;;;;;;0.57;0.47;;;24.40;55.20;;;;;;4943931;28;89747;-84
2022/09/09 01:43:26;;;;;;;1.17;0.47;;;24.40;55.20;;;;;;4930063;28;87072;-84
2022/09/09 01:45:55;;;;;;;1.00;0.45;;;24.40;55.20;;;;;;4930224;28;88441;-84
2022/09/09 01:48:22;;;;;;;;;;;24.40;55.20;;;;;;4930526;28;87255;-84
2022/09/09 01:50:48;;;;;;;0.38;0.35;;;24.40;55.20;;;;;;4931482;28;88775;-84
2022/09/09 01:53:16;;;;;;;0.30;0.30;;;24.40;55.20;;;;;;4929028;28;86950;-84
2022/09/09 01:55:53;;;;;;;1.38;0.50;;;24.40;55.20;;;;;;4929667;28;88475;-83
2022/09/09 01:58:37;;;;;;;0.68;0.40;;;24.40;55.30;;;;;;4929474;28;88992;-84
2022/09/09 02:01:29;;;;;;;0.40;0.40;;;24.40;55.30;;;;;;4930227;28;88363;-84
2022/09/09 02:03:57;;;;;;;1.70;0.70;;;24.30;55.40;;;;;;4948219;28;87228;-84
2022/09/09 02:06:39;;;;;;;0.40;0.40;;;24.30;55.40;;;;;;4948170;28;87344;-84
2022/09/09 02:09:07;;;;;;;0.85;0.50;;;24.30;55.30;;;;;;4946033;28;92768;-83
2022/09/09 02:11:33;;;;;;;0.70;0.50;;;24.40;55.30;;;;;;4946654;28;87623;-84
2022/09/09 02:14:23;;;;;;;0.98;0.40;;;24.30;55.40;;;;;;4946233;28;87717;-84
2022/09/09 02:16:56;;;;;;;0.32;0.32;;;24.30;55.40;;;;;;4946061;28;87611;-84
2022/09/09 02:19:25;;;;;;;0.90;0.60;;;24.30;55.30;;;;;;4928708;28;90915;-83
2022/09/09 02:21:53;;;;;;;1.20;0.47;;;24.30;55.40;;;;;;4964316;28;91225;-84
2022/09/09 02:24:19;;;;;;;0.75;0.60;;;24.30;55.30;;;;;;4945622;28;87926;-84
2022/09/09 02:26:47;;;;;;;0.50;0.43;;;24.40;55.40;;;;;;4945434;28;87443;-84
2022/09/09 02:29:28;;;;;;;1.05;0.40;;;24.30;55.40;;;;;;4946032;28;87704;-83
2022/09/09 02:31:57;;;;;;;1.27;0.50;;;24.40;55.40;;;;;;4931091;28;89922;-83
2022/09/09 02:34:24;;;;;;;0.93;0.40;;;24.30;55.40;;;;;;4946764;28;87074;-84
2022/09/09 02:36:53;;;;;;;0.90;0.45;;;24.30;55.50;;;;;;4946503;28;87154;-84
2022/09/09 02:39:18;;;;;;;1.00;0.50;;;24.40;55.50;;;;;;4945538;28;88753;-84
2022/09/09 02:41:44;;;;;;;0.43;0.35;;;24.40;55.40;;;;;;4931177;28;87834;-83
2022/09/09 02:44:12;;;;;;;0.70;0.50;;;24.30;55.30;;;;;;4930922;28;86973;-84
2022/09/09 02:46:56;;;;;;;1.23;0.50;;;24.30;55.40;;;;;;4929231;28;87411;-84
2022/09/09 02:49:50;;;;;;;0.60;0.40;;;24.40;55.50;;;;;;4928864;28;89749;-84
2022/09/09 02:52:20;;;;;;;1.55;0.60;;;24.30;55.30;;;;;;4928682;28;87349;-84
2022/09/09 02:54:50;;;;;;;0.40;0.40;;;24.30;55.40;;;;;;4929626;28;87151;-83
2022/09/09 02:57:25;;;;;;;0.50;0.43;;;24.30;55.40;;;;;;4929878;28;87476;-84
2022/09/09 02:59:54;;;;;;;0.63;0.45;;;24.30;55.60;;;;;;4931006;28;88465;-84
2022/09/09 03:02:20;;;;;;;;;;;24.30;55.60;;;;;;4928828;28;87905;-84
2022/09/09 03:04:50;;;;;;;0.90;0.40;;;24.30;55.40;;;;;;4929574;28;86850;-84
2022/09/09 03:07:16;;;;;;;1.02;0.60;;;24.30;55.60;;;;;;4929875;28;87461;-83
2022/09/09 03:09:42;;;;;;;0.47;0.40;;;24.40;55.60;;;;;;4927992;28;88627;-84
2022/09/09 03:12:08;;;;;;;0.73;0.55;;;24.30;55.50;;;;;;4928527;28;88173;-83
2022/09/09 03:14:34;;;;;;;0.50;0.40;;;24.30;55.40;;;;;;4929034;28;88352;-84
2022/09/09 03:17:00;;;;;;;0.40;0.40;;;24.30;55.50;;;;;;4928307;28;87253;-83
2022/09/09 03:19:27;;;;;;;0.63;0.40;;;24.30;55.50;;;;;;4929550;28;88592;-84
2022/09/09 03:21:53;;;;;;;0.80;0.40;;;24.30;55.50;;;;;;4928724;28;88197;-83
2022/09/09 03:24:19;;;;;;;0.45;0.40;;;24.30;55.60;;;;;;4930124;28;87115;-83
2022/09/09 03:26:44;;;;;;;0.40;0.30;;;24.30;55.60;;;;;;4928160;28;87555;-83
2022/09/09 03:29:12;;;;;;;1.52;0.45;;;24.30;55.50;;;;;;4929238;28;88133;-84
2022/09/09 03:31:38;;;;;;;0.52;0.40;;;24.30;55.60;;;;;;4925833;28;91157;-84
2022/09/09 03:34:04;;;;;;;0.35;0.30;;;24.30;55.70;;;;;;4927584;28;87910;-83
2022/09/09 03:36:30;;;;;;;0.45;0.30;;;24.30;55.60;;;;;;4926853;28;90111;-84
2022/09/09 03:38:55;;;;;;;0.60;0.52;;;24.30;55.60;;;;;;4927865;28;90131;-83
2022/09/09 03:41:23;;;;;;;0.70;0.50;;;24.30;55.40;;;;;;4925730;28;88658;-84
2022/09/09 03:43:52;;;;;;;1.40;0.40;;;24.30;55.40;;;;;;4928232;28;87713;-84
2022/09/09 03:46:19;;;;;;;1.13;0.50;;;24.30;55.50;;;;;;4927926;28;87743;-84
2022/09/09 03:48:45;;;;;;;0.60;0.50;;;24.30;55.40;;;;;;4927626;28;88438;-83
2022/09/09 03:51:10;;;;;;;1.58;0.82;;;24.30;55.40;;;;;;4927710;28;87692;-84
2022/09/09 03:53:37;;;;;;;0.57;0.40;;;24.30;55.40;;;;;;4928490;28;87546;-84
2022/09/09 03:56:06;;;;;;;0.95;0.50;;;24.30;55.50;;;;;;4927748;28;87624;-83
2022/09/09 03:58:33;;;;;;;0.57;0.50;;;24.30;55.50;;;;;;4927252;28;88827;-83
2022/09/09 04:01:13;;;;;;;0.63;0.40;;;24.30;55.40;;;;;;4926724;28;88249;-84
2022/09/09 04:03:39;;;;;;;1.00;0.47;;;24.30;55.30;;;;;;4919342;28;87984;-83
2022/09/09 04:06:06;;;;;;;0.95;0.52;;;24.30;55.30;;;;;;4929892;28;87020;-84
2022/09/09 04:08:32;;;;;;;0.25;0.25;;;24.30;55.30;;;;;;4927642;28;88110;-83
2022/09/09 04:10:58;;;;;;;0.50;0.47;;;24.30;55.30;;;;;;4927340;28;94345;-83
2022/09/09 04:13:25;;;;;;;0.40;0.32;;;24.30;55.40;;;;;;4928072;28;87500;-84
2022/09/09 04:15:52;;;;;;;0.60;0.52;;;24.30;55.50;;;;;;4917984;28;87902;-83
2022/09/09 04:18:19;;;;;;;0.40;0.40;;;24.30;55.30;;;;;;4928313;28;87697;-83
2022/09/09 04:20:47;;;;;;;0.50;0.45;;;24.30;55.40;;;;;;4928384;28;87814;-83
2022/09/09 04:23:13;;;;;;;0.40;0.40;;;24.30;55.50;;;;;;4927438;28;87405;-84
2022/09/09 04:25:48;;;;;;;0.80;0.40;;;24.30;55.50;;;;;;4928964;28;87405;-84
2022/09/09 04:28:14;;;;;;;0.47;0.30;;;24.30;55.40;;;;;;4941496;28;92832;-83
2022/09/09 04:30:41;;;;;;;0.35;0.30;;;24.30;55.40;;;;;;4927917;28;88092;-84
2022/09/09 04:33:07;;;;;;;0.60;0.40;;;24.30;55.50;;;;;;4930274;28;86884;-83
2022/09/09 04:35:33;;;;;;;0.30;0.30;;;24.30;55.50;;;;;;4926981;28;88048;-85
2022/09/09 04:37:59;;;;;;;0.90;0.60;;;24.30;55.40;;;;;;4927616;28;88660;-83
2022/09/09 04:40:25;;;;;;;0.50;0.40;;;24.30;55.40;;;;;;4929517;28;88292;-84
2022/09/09 04:42:51;;;;;;;0.60;0.40;;;24.30;55.40;;;;;;4927520;28;87140;-84
2022/09/09 04:45:18;;;;;;;0.68;0.50;;;24.30;55.40;;;;;;4927332;28;86493;-84
2022/09/09 04:47:44;;;;;;;0.50;0.40;;;24.30;55.30;;;;;;4929722;28;88510;-83
2022/09/09 04:50:09;;;;;;;0.60;0.55;;;24.30;55.30;;;;;;4932104;28;88875;-83
2022/09/09 04:52:35;;;;;;;0.57;0.30;;;24.30;55.40;;;;;;4931048;28;88012;-83
2022/09/09 04:55:01;;;;;;;0.63;0.30;;;24.30;55.30;;;;;;4930779;28;86985;-84
2022/09/09 04:57:27;;;;;;;0.30;0.30;;;24.30;55.30;;;;;;4931633;28;86935;-84
2022/09/09 04:59:53;;;;;;;0.47;0.40;;;24.30;55.40;;;;;;4930851;28;90669;-83
2022/09/09 05:02:19;;;;;;;1.00;0.50;;;24.30;55.20;;;;;;4932082;28;87230;-84
2022/09/09 05:04:44;;;;;;;1.02;0.50;;;24.30;55.20;;;;;;4931148;28;87830;-83
2022/09/09 05:07:10;;;;;;;0.43;0.43;;;24.30;55.50;;;;;;4930410;28;88694;-83
2022/09/09 05:09:35;;;;;;;0.50;0.30;;;24.30;55.30;;;;;;4931003;28;87394;-84
2022/09/09 05:12:02;;;;;;;1.23;0.50;;;24.30;55.30;;;;;;4931356;28;87164;-84
2022/09/09 05:14:29;;;;;;;0.52;0.45;;;24.30;55.60;;;;;;4950823;28;87412;-83
2022/09/09 05:16:55;;;;;;;0.43;0.30;;;24.30;55.40;;;;;;4931405;28;89399;-84
2022/09/09 05:19:21;;;;;;;0.47;0.30;;;24.30;55.40;;;;;;4929638;28;89141;-83
2022/09/09 05:21:47;;;;;;;0.40;0.30;;;24.30;55.40;;;;;;4931442;28;87275;-83
2022/09/09 05:24:15;;;;;;;0.65;0.55;;;24.30;55.40;;;;;;4931367;28;87336;-83
2022/09/09 05:26:41;;;;;;;0.40;0.30;;;24.30;55.30;;;;;;4930167;28;88429;-84
2022/09/09 05:29:08;;;;;;;0.65;0.45;;;24.30;55.40;;;;;;4930734;28;87643;-83
2022/09/09 05:31:33;;;;;;;0.32;0.30;;;24.30;56.10;;;;;;4931778;28;87129;-84
2022/09/09 05:33:59;;;;;;;0.57;0.40;;;24.30;55.40;;;;;;4961231;28;89527;-84
2022/09/09 05:36:25;;;;;;;1.10;0.45;;;24.30;55.30;;;;;;4930657;28;88657;-84
2022/09/09 05:38:53;;;;;;;0.73;0.40;;;24.30;55.40;;;;;;4929371;28;87759;-84
2022/09/09 05:41:19;;;;;;;0.93;0.40;;;24.30;55.30;;;;;;4928041;28;88154;-84
2022/09/09 05:43:49;;;;;;;0.40;0.40;;;24.30;55.40;;;;;;4929988;28;87734;-84
2022/09/09 05:46:20;;;;;;;0.57;0.40;;;24.30;55.40;;;;;;4930028;28;89609;-84
2022/09/09 05:48:47;;;;;;;0.50;0.40;;;24.30;55.50;;;;;;4927982;28;90828;-84
2022/09/09 05:51:17;;;;;;;1.35;0.57;;;24.30;55.30;;;;;;4960735;28;87444;-84
2022/09/09 05:53:43;;;;;;;;;;;24.30;55.10;;;;;;4929692;28;87643;-83
2022/09/09 05:56:11;;;;;;;0.40;0.40;;;24.30;55.10;;;;;;4961169;28;90670;-83
2022/09/09 05:58:37;;;;;;;0.52;0.38;;;24.30;55.20;;;;;;4930697;28;88116;-84
2022/09/09 06:01:08;;;;;;;0.80;0.45;;;24.30;55.20;;;;;;4930207;28;86986;-83
2022/09/09 06:03:35;;;;;;;0.45;0.40;;;24.30;55.20;;;;;;4921899;28;87354;-84
2022/09/09 06:06:05;;;;;;;0.40;0.40;;;24.30;55.30;;;;;;4958854;28;90868;-84
2022/09/09 06:08:31;;;;;;;0.65;0.47;;;24.30;55.20;;;;;;4927767;28;89289;-84
2022/09/09 06:11:17;;;;;;;0.40;0.40;;;24.30;55.30;;;;;;4929158;28;86871;-83
2022/09/09 06:13:42;;;;;;;0.63;0.40;;;24.30;55.20;;;;;;4928807;28;87416;-84
2022/09/09 06:16:11;;;;;;;0.40;0.40;;;24.30;55.20;;;;;;4927913;28;94083;-84
2022/09/09 06:18:37;;;;;;;0.50;0.37;;;24.30;55.10;;;;;;4926740;28;90301;-83
2022/09/09 06:21:06;;;;;;;0.40;0.40;;;24.30;55.20;;;;;;4928871;28;87566;-84
2022/09/09 06:23:32;;;;;;;0.75;0.50;;;24.30;55.20;;;;;;4930235;28;87469;-83
2022/09/09 06:26:17;;;;;;;0.30;0.30;;;24.30;55.10;;;;;;4929093;28;88428;-84
2022/09/09 06:28:45;;;;;;;0.68;0.40;;;24.30;55.00;;;;;;4960989;28;91699;-84
2022/09/09 06:31:12;;;;;;;0.30;0.30;;;24.30;55.10;;;;;;4928752;28;88277;-84
2022/09/09 06:33:41;;;;;;;0.70;0.40;;;24.30;55.20;;;;;;4929877;28;87454;-84
2022/09/09 06:36:18;;;;;;;0.50;0.40;;;24.30;55.90;;;;;;4960386;28;88608;-84
2022/09/09 06:38:44;;;;;;;0.82;0.60;;;24.30;55.30;;;;;;4929479;28;87746;-84
2022/09/09 06:41:12;;;;;;;0.60;0.40;;;24.40;55.30;;;;;;4927615;28;88029;-84
2022/09/09 06:43:37;;;;;;;0.88;0.47;;;24.50;55.30;;;;;;4927540;28;87451;-84
2022/09/09 06:46:10;;;;;;;0.63;0.40;;;24.50;55.10;;;;;;4927421;28;91544;-83
2022/09/09 06:48:40;;;;;;;0.65;0.28;;;24.60;55.10;;;;;;4928997;28;87313;-84
2022/09/09 06:51:09;;;;;;;0.45;0.45;;;24.60;55.20;;;;;;4928227;28;87550;-84
2022/09/09 06:53:36;;;;;;;0.75;0.57;;;24.70;55.40;;;;;;4929646;28;87063;-83
2022/09/09 06:56:15;;;;;;;0.50;0.45;;;24.70;55.20;;;;;;4928000;28;89713;-84
2022/09/09 06:58:43;;;;;;;2.65;0.80;;;24.60;55.20;;;;;;4928894;28;89417;-84
2022/09/09 07:01:12;;;;;;;4.73;1.00;;;24.60;53.70;;;;;;4928963;28;87231;-84
2022/09/09 07:03:38;;;;;;;5.32;1.33;;;24.70;53.90;;;;;;4930710;28;87540;-85
2022/09/09 07:06:05;;;;;;;6.82;1.92;;;24.60;53.10;;;;;;4928798;28;88077;-85
2022/09/09 07:08:31;;;;;;;6.85;1.95;;;24.50;52.50;;;;;;4928020;28;87098;-85
2022/09/09 07:11:04;;;;;;;7.78;1.80;;;24.50;52.80;;;;;;4926767;28;87254;-84
2022/09/09 07:13:35;;;;;;;7.70;1.80;;;24.50;53.00;;;;;;4929782;28;87337;-84
2022/09/09 07:16:10;;;;;;;11.93;2.10;;;24.40;52.90;;;;;;4930252;28;88610;-84
2022/09/09 07:18:36;;;;;;;8.20;2.10;;;24.40;52.80;;;;;;4960785;28;91597;-84
2022/09/09 07:21:03;;;;;;;7.20;1.63;;;24.40;52.50;;;;;;4961704;28;88246;-82
2022/09/09 07:23:30;;;;;;;7.65;2.00;;;24.30;52.30;;;;;;4930210;28;87560;-83
2022/09/09 07:25:57;;;;;;;8.68;2.17;;;24.30;52.50;;;;;;4930401;28;87910;-83
2022/09/09 07:28:23;;;;;;;7.72;1.70;;;24.30;52.30;;;;;;4926843;28;88347;-83
2022/09/09 07:31:02;;;;;;;6.70;1.50;;;24.20;52.20;;;;;;4928335;28;86957;-83
2022/09/09 07:33:30;;;;;;;7.65;1.90;;;24.20;52.60;;;;;;4929155;28;87666;-83
2022/09/09 07:36:07;;;;;;;9.38;1.88;;;24.30;52.40;;;;;;4926700;28;94616;-83
2022/09/09 07:38:47;;;;;;;11.00;2.35;;;24.30;52.10;;;;;;4927469;28;93407;-83
2022/09/09 07:41:17;;;;;;;6.55;1.55;;;24.30;51.90;;;;;;4928893;28;87668;-84
2022/09/09 07:43:45;;;;;;;5.90;1.60;;;24.30;52.00;;;;;;4927799;28;87973;-83
2022/09/09 07:46:12;;;;;;;7.90;1.85;;;24.30;51.70;;;;;;4927892;28;89616;-84
2022/09/09 07:48:42;;;;;;;9.18;2.42;;;24.20;51.50;;;;;;4947007;28;88468;-84
2022/09/09 07:51:14;;;;;;;8.10;1.90;;;24.10;51.80;;;;;;4921365;28;87464;-84
2022/09/09 07:53:40;;;;;;;6.53;1.88;;;24.10;51.70;;;;;;4891539;28;87404;-83
2022/09/09 07:56:18;;;;;;;12.05;1.65;;;24.10;51.70;;;;;;4926983;28;92078;-84
2022/09/09 07:58:47;;;;;;;11.18;2.00;;;24.10;51.70;;;;;;4928150;28;87677;-84
2022/09/09 08:01:17;;;;;;;4.70;1.50;;;24.10;51.70;;;;;;4927401;28;87233;-85
2022/09/09 08:03:44;;;;;;;6.80;1.73;;;24.10;52.40;;;;;;4927190;28;93713;-85
2022/09/09 08:06:11;;;;;;;7.90;1.75;;;24.10;51.60;;;;;;4928981;28;88834;-85
2022/09/09 08:08:38;;;;;;;9.85;2.33;;;24.00;51.60;;;;;;4926859;28;90371;-85
2022/09/09 08:11:11;;;;;;;7.45;1.83;;;24.00;52.20;;;;;;4928427;28;88761;-85
2022/09/09 08:13:37;;;;;;;7.05;1.80;;;24.00;51.70;;;;;;4958210;28;89374;-86
2022/09/09 08:16:05;;;;;;;28.65;5.47;;;24.00;51.80;;;;;;4928119;28;87640;-85
2022/09/09 08:18:31;;;;;;;106.57;21.13;;;24.00;51.30;;;;;;4961035;28;91388;-85
2022/09/09 08:20:56;;;;;;;86.18;14.65;;;24.00;51.50;;;;;;4928748;28;87215;-85
2022/09/09 08:23:25;;;;;;;44.05;9.50;;;24.00;51.50;;;;;;4931539;28;88151;-85
2022/09/09 08:25:53;;;;;;;39.07;8.07;;;24.00;51.60;;;;;;4929137;28;90705;-85
2022/09/09 08:28:18;;;;;;;31.50;6.32;;;24.00;51.60;;;;;;4961929;28;92209;-84
2022/09/09 08:30:44;;;;;;;33.13;5.75;;;24.00;51.40;;;;;;4933905;28;87636;-85
2022/09/09 08:33:10;;;;;;;26.40;5.15;;;24.00;51.40;;;;;;4932842;28;87579;-85
2022/09/09 08:35:35;;;;;;;20.88;4.57;;;23.90;51.40;;;;;;4932060;28;88384;-85
2022/09/09 08:38:02;;;;;;;19.17;4.47;;;24.00;51.60;;;;;;4943887;28;89430;-84
2022/09/09 08:40:33;;;;;;;17.00;3.50;;;24.00;51.60;;;;;;4937875;28;87490;-85
2022/09/09 08:43:02;;;;;;;10.55;2.88;;;24.00;51.70;;;;;;4931299;28;87688;-84
2022/09/09 08:45:37;;;;;;;9.30;2.40;;;24.00;51.80;;;;;;4933090;28;88150;-84
2022/09/09 08:48:11;;;;;;;9.45;2.40;;;24.00;51.90;;;;;;4945692;28;95560;-84
2022/09/09 08:50:40;;;;;;;16.42;2.80;;;24.00;51.90;;;;;;4932443;28;88184;-85
2022/09/09 08:53:19;;;;;;;9.85;2.17;;;24.00;51.60;;;;;;4930866;28;87583;-84
2022/09/09 08:55:48;;;;;;;9.00;1.92;;;24.00;51.50;;;;;;4930626;28;87795;-84
2022/09/09 08:58:21;;;;;;;12.38;2.40;;;24.00;51.50;;;;;;4932838;28;86963;-84
2022/09/09 09:00:46;;;;;;;9.13;1.88;;;24.00;51.60;;;;;;4961928;28;88185;-84
2022/09/09 09:03:35;;;;;;;9.27;2.17;;;24.00;51.50;;;;;;4931012;28;87570;-84
2022/09/09 09:06:22;;;;;;;11.93;2.15;;;24.00;51.60;;;;;;4957667;28;92826;-85
2022/09/09 09:09:08;;;;;;;9.77;2.08;;;24.00;52.60;;;;;;4957354;28;88388;-84
2022/09/09 09:11:37;;;;;;;6.40;2.03;;;23.90;51.80;;;;;;4956362;28;87810;-84
2022/09/09 09:14:23;;;;;;;7.93;2.00;;;24.00;51.70;;;;;;4952356;28;87869;-85
2022/09/09 09:16:49;;;;;;;12.10;2.80;;;24.00;51.80;;;;;;4944345;28;89242;-85
2022/09/09 09:19:16;;;;;;;12.07;2.05;;;24.00;51.80;;;;;;4952208;28;88279;-83
2022/09/09 09:21:47;;;;;;;8.38;1.52;;;24.00;52.00;;;;;;4943846;28;87185;-83
2022/09/09 09:24:24;;;;;;;6.40;1.67;;;24.00;52.10;;;;;;4954152;28;87441;-84
2022/09/09 09:26:50;;;;;;;6.85;1.98;;;23.90;52.10;;;;;;4951731;28;89577;-84
2022/09/09 09:29:19;;;;;;;6.85;2.10;;;24.00;52.70;;;;;;4951242;28;88725;-83
2022/09/09 09:31:58;;;;;;;5.57;1.90;;;23.90;53.00;;;;;;4953022;28;87736;-83
2022/09/09 09:34:24;;;;;;;;;;;24.00;53.30;;;;;;4952144;28;87051;-82
2022/09/09 09:36:58;;;;;;;8.15;1.65;;;24.00;53.50;;;;;;4957093;28;87715;-82
2022/09/09 09:39:28;;;;;;;5.50;1.98;;;24.10;53.30;;;;;;4954240;28;88865;-82
2022/09/09 09:41:54;;;;;;;5.80;1.40;;;24.00;53.00;;;;;;4932787;28;88823;-82
2022/09/09 09:44:25;;;;;;;8.35;2.13;;;24.10;52.90;;;;;;4932296;28;86806;-81
2022/09/09 09:46:51;;;;;;;7.07;1.67;;;24.00;53.30;;;;;;4928533;28;87893;-81
2022/09/09 09:49:17;;;;;;;5.32;1.40;;;24.10;53.50;;;;;;4931777;28;88230;-83
2022/09/09 09:51:43;;;;;;;9.15;1.90;;;24.10;53.40;;;;;;4930987;28;88360;-82
2022/09/09 09:54:27;;;;;;;7.32;1.35;;;24.10;53.40;;;;;;4931090;28;87054;-82
2022/09/09 09:56:53;;;;;;;5.38;1.40;;;24.10;53.40;;;;;;4929195;28;87731;-82
2022/09/09 09:59:33;;;;;;;8.35;1.90;;;24.10;53.60;;;;;;4929726;28;87535;-79
2022/09/09 10:02:15;;;;;;;7.63;1.92;;;24.10;53.40;;;;;;4927624;28;87262;-81
2022/09/09 10:04:41;;;;;;;6.72;1.77;;;24.10;53.30;;;;;;4927430;28;87785;-81
2022/09/09 10:07:20;;;;;;;5.57;1.60;;;24.30;53.00;;;;;;4927494;28;88382;-80
2022/09/09 10:09:54;;;;;;;6.50;1.73;;;24.20;53.10;;;;;;4927282;28;89191;-81
2022/09/09 10:12:23;;;;;;;7.20;2.10;;;24.20;52.90;;;;;;4929497;28;87415;-82
2022/09/09 10:15:21;;;;;;;6.83;3.03;;;24.10;52.90;;;;;;4960121;28;89724;-82
2022/09/09 10:18:20;;;;;;;9.48;3.10;;;24.10;52.90;;;;;;4940482;28;93002;-81
2022/09/09 10:20:51;;;;;;;6.90;2.78;;;24.10;53.10;;;;;;4925957;28;89160;-82
2022/09/09 10:23:23;;;;;;;7.35;2.97;;;24.00;53.60;;;;;;4926745;28;87860;-82
2022/09/09 10:26:01;;;;;;;6.43;2.70;;;24.00;53.80;;;;;;4925329;28;87824;-80
2022/09/09 10:28:51;;;;;;;9.95;2.35;;;24.00;53.90;;;;;;4922554;28;87336;-82
2022/09/09 10:31:24;;;;;;;8.70;2.20;;;24.00;54.30;;;;;;4927646;28;87340;-82
2022/09/09 10:34:06;;;;;;;9.02;2.58;;;24.00;54.30;;;;;;4941937;28;87074;-83
2022/09/09 10:36:32;;;;;;;5.90;1.80;;;24.00;54.30;;;;;;4927714;28;87442;-83
2022/09/09 10:39:16;;;;;;;8.07;2.10;;;24.00;54.40;;;;;;4928724;28;88002;-84
2022/09/09 10:42:14;;;;;;;7.82;2.20;;;24.00;55.10;;;;;;4927877;28;87703;-82
2022/09/09 10:44:58;;;;;;;4.90;1.70;;;23.90;55.40;;;;;;4927397;28;88356;-85
2022/09/09 10:47:53;;;;;;;3.67;1.60;;;23.90;55.60;;;;;;4926040;28;87086;-84
2022/09/09 10:50:28;;;;;;;7.22;1.70;;;23.90;55.80;;;;;;4923708;28;88807;-82
2022/09/09 10:53:08;;;;;;;10.85;1.73;;;23.90;55.80;;;;;;4928210;28;88410;-83
2022/09/09 10:55:40;;;;;;;7.85;1.88;;;24.00;55.60;;;;;;4928605;28;87128;-83
2022/09/09 10:58:17;;;;;;;6.55;1.52;;;24.00;56.20;;;;;;4926945;28;88284;-83
2022/09/09 11:00:51;;;;;;;5.38;2.00;;;24.00;56.30;;;;;;4946701;28;88181;-84
2022/09/09 11:03:32;;;;;;;5.60;1.35;;;23.90;56.60;;;;;;4929118;28;87886;-84
2022/09/09 11:06:05;;;;;;;6.72;1.40;;;23.90;56.80;;;;;;4928358;28;87559;-84
2022/09/09 11:08:34;;;;;;;6.15;1.75;;;23.90;56.90;;;;;;4931485;28;87301;-83
2022/09/09 11:11:21;;;;;;;7.22;1.70;;;23.90;56.80;;;;;;4942928;28;89598;-84
2022/09/09 11:13:54;;;;;;;4.05;1.45;;;23.90;56.70;;;;;;4931731;28;88852;-83
2022/09/09 11:16:43;;;;;;;5.78;1.58;;;23.90;56.90;;;;;;4929919;28;87097;-84
2022/09/09 11:19:26;;;;;;;8.77;1.75;;;24.00;56.60;;;;;;4960875;28;89637;-84
2022/09/09 11:21:54;;;;;;;5.88;1.42;;;24.00;56.40;;;;;;4928349;28;88636;-83
2022/09/09 11:24:23;;;;;;;6.43;1.50;;;24.00;56.90;;;;;;4929114;28;88115;-84
2022/09/09 11:26:53;;;;;;;;;;;24.00;56.90;;;;;;4928504;28;87466;-83
2022/09/09 11:29:55;;;;;;;5.53;1.35;;;24.00;56.80;;;;;;4930851;28;87050;-84
2022/09/09 11:32:34;;;;;;;8.05;1.55;;;24.00;56.80;;;;;;4928518;28;88158;-84
2022/09/09 11:35:29;;;;;;;5.25;1.67;;;24.00;56.50;;;;;;4959600;28;91471;-83
2022/09/09 11:38:04;;;;;;;4.18;1.55;;;24.00;56.40;;;;;;4934498;28;89830;-83
2022/09/09 11:40:32;;;;;;;8.10;1.80;;;24.00;56.50;;;;;;4934486;28;87886;-83
2022/09/09 11:43:08;;;;;;;7.88;2.00;;;24.00;56.60;;;;;;4951138;28;91447;-83
2022/09/09 11:45:35;;;;;;;4.47;1.23;;;24.00;56.70;;;;;;4936260;28;87903;-84
2022/09/09 11:48:02;;;;;;;6.57;1.73;;;24.00;56.50;;;;;;4936419;28;87661;-84
2022/09/09 11:50:34;;;;;;;5.80;1.63;;;24.10;56.30;;;;;;4933261;28;87619;-84
2022/09/09 11:53:22;;;;;;;9.70;2.22;;;24.00;56.30;;;;;;4951199;28;90331;-84
2022/09/09 11:55:59;;;;;;;5.28;1.30;;;24.00;56.00;;;;;;4927400;28;91476;-84
2022/09/09 11:58:25;;;;;;;6.00;1.85;;;24.00;55.80;;;;;;4939712;28;87171;-84
2022/09/09 12:00:52;;;;;;;6.10;1.33;;;24.00;55.90;;;;;;4954670;28;90391;-83
2022/09/09 12:03:46;;;;;;;4.57;1.40;;;24.00;55.90;;;;;;4938577;28;89724;-84
2022/09/09 12:06:32;;;;;;;6.78;1.42;;;24.00;55.90;;;;;;4937233;28;95143;-83
2022/09/09 12:09:36;;;;;;;6.53;1.77;;;24.00;56.10;;;;;;4953267;28;87264;-84
2022/09/09 12:12:11;;;;;;;7.63;2.25;;;24.00;56.20;;;;;;4938453;28;90384;-84
2022/09/09 12:14:38;;;;;;;9.70;1.98;;;23.90;56.30;;;;;;4934423;28;87128;-84
2022/09/09 12:17:16;;;;;;;6.32;2.10;;;24.00;56.40;;;;;;4930024;28;88134;-84
2022/09/09 12:19:42;;;;;;;6.13;1.60;;;24.00;56.40;;;;;;4963817;28;87058;-85
2022/09/09 12:22:45;;;;;;;32.75;6.70;;;24.00;56.50;;;;;;4932283;28;86502;-85
2022/09/09 12:25:22;;;;;;;40.80;10.00;;;23.90;56.50;;;;;;4928874;28;88732;-84
2022/09/09 12:28:16;;;;;;;47.85;8.95;;;23.90;56.20;;;;;;4927342;28;87455;-83
2022/09/09 12:31:00;;;;;;;31.73;7.50;;;23.90;55.80;;;;;;4927196;28;87892;-83
2022/09/09 12:33:39;;;;;;;20.33;4.63;;;23.90;56.10;;;;;;4929226;28;87961;-84
2022/09/09 12:36:09;;;;;;;17.95;4.50;;;23.90;56.50;;;;;;4947978;28;95811;-84
2022/09/09 12:38:38;;;;;;;14.95;3.58;;;23.80;56.80;;;;;;4948877;28;87531;-84
2022/09/09 12:41:04;;;;;;;17.48;3.53;;;23.90;57.00;;;;;;4946969;28;87670;-83
2022/09/09 12:43:30;;;;;;;11.50;3.20;;;23.80;57.00;;;;;;4947765;28;87309;-84
2022/09/09 12:46:03;;;;;;;12.90;2.80;;;23.90;57.20;;;;;;4945848;28;88502;-83
2022/09/09 12:48:38;;;;;;;9.13;2.33;;;23.90;57.30;;;;;;4948647;28;87959;-84
2022/09/09 12:51:16;;;;;;;6.80;2.38;;;23.90;57.80;;;;;;4938144;28;88018;-84
2022/09/09 12:53:45;;;;;;;7.35;2.10;;;23.90;58.00;;;;;;4937623;28;88446;-83
2022/09/09 12:56:20;;;;;;;7.38;1.92;;;23.90;58.10;;;;;;4937753;28;89641;-84
2022/09/09 12:58:51;;;;;;;7.18;1.70;;;23.90;58.20;;;;;;4929546;28;92178;-84
2022/09/09 13:01:31;;;;;;;6.93;1.75;;;23.90;58.30;;;;;;4937959;28;87062;-83
2022/09/09 13:03:58;;;;;;;6.10;1.95;;;23.90;58.50;;;;;;4935889;28;87094;-84
2022/09/09 13:06:26;;;;;;;7.03;1.75;;;23.90;58.90;;;;;;4935770;28;88254;-84
2022/09/09 13:08:53;;;;;;;7.95;1.73;;;23.90;59.00;;;;;;4934392;28;87682;-84
2022/09/09 13:11:46;;;;;;;9.52;2.42;;;23.90;59.10;;;;;;4936281;28;87226;-83
2022/09/09 13:14:22;;;;;;;7.00;1.67;;;24.00;59.00;;;;;;4937237;28;87536;-83